PWSweather.com
Personal Weather Stations
Station Observations
KMIEASTT1
Tawas Bay, East Tawas, MI 48730

Tawas BayEast Tawas, MI 48730

Lat: 44.28, Lon: -83.48

Elevation: 600

Station Type: Davis VantagePro

http://www.tawasbayweather.com

High Low Average
Temperature 57.2°F14.0°F 36.4°F2.4°F 45.4°F7.4°F
Dew Point 45.7°F7.6°F 34.0°F1.1°F 39.4°F4.1°F
Winds 10.0 mph ENE16.1 mph ENE Calm Calm 3.0 mph 4.8 mph
Wind Gusts 16.0 mph25.7 mph -- 6.1 mph9.8 mph
Humidity 95% 63% 80%
Pressure 30.17 in1021.70 in 30.08 in1018.60 in -
Precipitation 0.00 in0.00 in - -
Hour Temp Dew Point Humidity Winds Wind Gusts Pressure Precip Precip Rate Daily Precip Total
12:00 AM 36.9°F2.7°C 34.5°F1.4°C 91% 2.0 mph ENE3.2 kmh ENE 3.0 mph4.8 kmh 30.16 in1021.3 mb 0.00 in0.0 mm 0.00 in0.0 mm 0.00 in0.0 mm
12:15 AM 36.6°F2.6°C 34.2°F1.2°C 91% Calm Calm 2.0 mph3.2 kmh 30.16 in1021.3 mb 0.00 in0.0 mm 0.00 in0.0 mm 0.00 in0.0 mm
12:30 AM 36.6°F2.6°C 34.8°F1.6°C 93% Calm Calm -- 30.15 in1021.0 mb 0.00 in0.0 mm 0.00 in0.0 mm 0.00 in0.0 mm
12:45 AM 38.2°F3.4°C 36.6°F2.6°C 94% Calm Calm -- 30.15 in1021.0 mb 0.00 in0.0 mm 0.00 in0.0 mm 0.00 in0.0 mm
01:00 AM 37.8°F3.2°C 36.0°F2.2°C 93% Calm Calm -- 30.15 in1021.0 mb 0.00 in0.0 mm 0.00 in0.0 mm 0.00 in0.0 mm
01:15 AM 36.7°F2.6°C 34.6°F1.4°C 92% Calm Calm 3.0 mph4.8 kmh 30.15 in1021.0 mb 0.00 in0.0 mm 0.00 in0.0 mm 0.00 in0.0 mm
01:30 AM 36.4°F2.4°C 34.6°F1.4°C 93% Calm Calm -- 30.14 in1020.7 mb 0.00 in0.0 mm 0.00 in0.0 mm 0.00 in0.0 mm
01:45 AM 36.7°F2.6°C 35.1°F1.7°C 94% Calm Calm -- 30.14 in1020.7 mb 0.00 in0.0 mm 0.00 in0.0 mm 0.00 in0.0 mm
02:00 AM 38.4°F3.6°C 37.1°F2.8°C 95% Calm Calm -- 30.14 in1020.7 mb 0.00 in0.0 mm 0.00 in0.0 mm 0.00 in0.0 mm
02:15 AM 38.7°F3.7°C 37.1°F2.8°C 94% Calm Calm -- 30.13 in1020.3 mb 0.00 in0.0 mm 0.00 in0.0 mm 0.00 in0.0 mm
02:30 AM 39.0°F3.9°C 37.4°F3.0°C 94% Calm Calm 1.0 mph1.6 kmh 30.13 in1020.3 mb 0.00 in0.0 mm 0.00 in0.0 mm 0.00 in0.0 mm
02:45 AM 39.7°F4.3°C 37.9°F3.3°C 93% Calm Calm 1.0 mph1.6 kmh 30.13 in1020.3 mb 0.00 in0.0 mm 0.00 in0.0 mm 0.00 in0.0 mm
03:00 AM 42.7°F5.9°C 40.0°F4.4°C 90% Calm Calm 6.0 mph9.7 kmh 30.12 in1020.0 mb 0.00 in0.0 mm 0.00 in0.0 mm 0.00 in0.0 mm
03:15 AM 41.4°F5.2°C 37.2°F2.9°C 85% 1.0 mph SSW1.6 kmh SSW 2.0 mph3.2 kmh 30.12 in1020.0 mb 0.00 in0.0 mm 0.00 in0.0 mm 0.00 in0.0 mm
03:30 AM 39.1°F3.9°C 36.1°F2.3°C 89% 2.0 mph NW3.2 kmh NW 3.0 mph4.8 kmh 30.12 in1020.0 mb 0.00 in0.0 mm 0.00 in0.0 mm 0.00 in0.0 mm
03:45 AM 37.2°F2.9°C 34.3°F1.3°C 89% 2.0 mph NNW3.2 kmh NNW 3.0 mph4.8 kmh 30.12 in1020.0 mb 0.00 in0.0 mm 0.00 in0.0 mm 0.00 in0.0 mm
04:00 AM 36.4°F2.4°C 34.0°F1.1°C 91% 1.0 mph NNW1.6 kmh NNW 2.0 mph3.2 kmh 30.12 in1020.0 mb 0.00 in0.0 mm 0.00 in0.0 mm 0.00 in0.0 mm
04:15 AM 37.2°F2.9°C 34.5°F1.4°C 90% 1.0 mph NW1.6 kmh NW 3.0 mph4.8 kmh 30.11 in1019.6 mb 0.00 in0.0 mm 0.00 in0.0 mm 0.00 in0.0 mm
04:30 AM 39.0°F3.9°C 36.0°F2.2°C 89% 1.0 mph WSW1.6 kmh WSW 3.0 mph4.8 kmh 30.11 in1019.6 mb 0.00 in0.0 mm 0.00 in0.0 mm 0.00 in0.0 mm
04:45 AM 40.1°F4.5°C 36.6°F2.6°C 87% 1.0 mph WSW1.6 kmh WSW 3.0 mph4.8 kmh 30.11 in1019.6 mb 0.00 in0.0 mm 0.00 in0.0 mm 0.00 in0.0 mm
05:00 AM 40.2°F4.6°C 36.4°F2.4°C 86% 1.0 mph WSW1.6 kmh WSW 3.0 mph4.8 kmh 30.10 in1019.3 mb 0.00 in0.0 mm 0.00 in0.0 mm 0.00 in0.0 mm
05:15 AM 41.3°F5.2°C 38.3°F3.5°C 89% 2.0 mph WSW3.2 kmh WSW 4.0 mph6.4 kmh 30.10 in1019.3 mb 0.00 in0.0 mm 0.00 in0.0 mm 0.00 in0.0 mm
05:30 AM 43.2°F6.2°C 40.8°F4.9°C 91% 3.0 mph SW4.8 kmh SW 4.0 mph6.4 kmh 30.09 in1019.0 mb 0.00 in0.0 mm 0.00 in0.0 mm 0.00 in0.0 mm
05:45 AM 42.4°F5.8°C 39.4°F4.1°C 89% 1.0 mph WSW1.6 kmh WSW 3.0 mph4.8 kmh 30.09 in1019.0 mb 0.00 in0.0 mm 0.00 in0.0 mm 0.00 in0.0 mm
06:00 AM 41.7°F5.4°C 38.7°F3.7°C 89% Calm Calm 1.0 mph1.6 kmh 30.09 in1019.0 mb 0.00 in0.0 mm 0.00 in0.0 mm 0.00 in0.0 mm
06:15 AM 41.3°F5.2°C 38.0°F3.3°C 88% 1.0 mph WSW1.6 kmh WSW 2.0 mph3.2 kmh 30.09 in1019.0 mb 0.00 in0.0 mm 0.00 in0.0 mm 0.00 in0.0 mm
06:30 AM 40.6°F4.8°C 36.2°F2.3°C 84% 2.0 mph W3.2 kmh W 3.0 mph4.8 kmh 30.09 in1019.0 mb 0.00 in0.0 mm 0.00 in0.0 mm 0.00 in0.0 mm
06:45 AM 39.6°F4.2°C 35.5°F1.9°C 85% 4.0 mph SW6.4 kmh SW 5.0 mph8.0 kmh 30.09 in1019.0 mb 0.00 in0.0 mm 0.00 in0.0 mm 0.00 in0.0 mm
07:00 AM 41.1°F5.1°C 36.6°F2.6°C 84% 4.0 mph SW6.4 kmh SW 6.0 mph9.7 kmh 30.09 in1019.0 mb 0.00 in0.0 mm 0.00 in0.0 mm 0.00 in0.0 mm
07:15 AM 42.2°F5.7°C 38.3°F3.5°C 86% 3.0 mph SSW4.8 kmh SSW 4.0 mph6.4 kmh 30.09 in1019.0 mb 0.00 in0.0 mm 0.00 in0.0 mm 0.00 in0.0 mm
07:30 AM 42.7°F5.9°C 38.2°F3.4°C 84% 7.0 mph SW11.3 kmh SW 7.0 mph11.3 kmh 30.09 in1019.0 mb 0.00 in0.0 mm 0.00 in0.0 mm 0.00 in0.0 mm
07:45 AM 42.4°F5.8°C 37.9°F3.3°C 84% 7.0 mph SSW11.3 kmh SSW 7.0 mph11.3 kmh 30.10 in1019.3 mb 0.00 in0.0 mm 0.00 in0.0 mm 0.00 in0.0 mm
08:00 AM 42.1°F5.6°C 37.9°F3.3°C 85% 6.0 mph N9.7 kmh N 7.0 mph11.3 kmh 30.10 in1019.3 mb 0.00 in0.0 mm 0.00 in0.0 mm 0.00 in0.0 mm
08:15 AM 42.4°F5.8°C 37.6°F3.1°C 83% 5.0 mph WSW8.0 kmh WSW 6.0 mph9.7 kmh 30.10 in1019.3 mb 0.00 in0.0 mm 0.00 in0.0 mm 0.00 in0.0 mm
08:30 AM 42.3°F5.7°C 36.9°F2.7°C 81% 4.0 mph SW6.4 kmh SW 5.0 mph8.0 kmh 30.11 in1019.6 mb 0.00 in0.0 mm 0.00 in0.0 mm 0.00 in0.0 mm
08:45 AM 43.3°F6.3°C 37.2°F2.9°C 79% 6.0 mph SW9.7 kmh SW 6.0 mph9.7 kmh 30.10 in1019.3 mb 0.00 in0.0 mm 0.00 in0.0 mm 0.00 in0.0 mm
09:00 AM 44.3°F6.8°C 37.6°F3.1°C 77% 5.0 mph SW8.0 kmh SW 6.0 mph9.7 kmh 30.10 in1019.3 mb 0.00 in0.0 mm 0.00 in0.0 mm 0.00 in0.0 mm
09:15 AM 45.5°F7.5°C 39.1°F3.9°C 78% 5.0 mph SW8.0 kmh SW 5.0 mph8.0 kmh 30.10 in1019.3 mb 0.00 in0.0 mm 0.00 in0.0 mm 0.00 in0.0 mm
09:30 AM 46.5°F8.1°C 40.0°F4.4°C 78% 4.0 mph SW6.4 kmh SW 5.0 mph8.0 kmh 30.10 in1019.3 mb 0.00 in0.0 mm 0.00 in0.0 mm 0.00 in0.0 mm
09:45 AM 47.4°F8.6°C 41.6°F5.3°C 80% 3.0 mph SSW4.8 kmh SSW 5.0 mph8.0 kmh 30.10 in1019.3 mb 0.00 in0.0 mm 0.00 in0.0 mm 0.00 in0.0 mm
10:00 AM 47.9°F8.8°C 42.4°F5.8°C 81% 3.0 mph S4.8 kmh S 5.0 mph8.0 kmh 30.10 in1019.3 mb 0.00 in0.0 mm 0.00 in0.0 mm 0.00 in0.0 mm
10:15 AM 48.4°F9.1°C 43.2°F6.2°C 82% 3.0 mph S4.8 kmh S 4.0 mph6.4 kmh 30.10 in1019.3 mb 0.00 in0.0 mm 0.00 in0.0 mm 0.00 in0.0 mm
10:30 AM 49.0°F9.4°C 43.1°F6.2°C 80% 6.0 mph S9.7 kmh S 6.0 mph9.7 kmh 30.10 in1019.3 mb 0.00 in0.0 mm 0.00 in0.0 mm 0.00 in0.0 mm
10:45 AM 49.5°F9.7°C 43.6°F6.4°C 80% 5.0 mph S8.0 kmh S 6.0 mph9.7 kmh 30.10 in1019.3 mb 0.00 in0.0 mm 0.00 in0.0 mm 0.00 in0.0 mm
11:00 AM 49.8°F9.9°C 44.2°F6.8°C 81% 3.0 mph SSE4.8 kmh SSE 6.0 mph9.7 kmh 30.10 in1019.3 mb 0.00 in0.0 mm 0.00 in0.0 mm 0.00 in0.0 mm
11:15 AM 50.2°F10.1°C 44.6°F7.0°C 81% 4.0 mph SE6.4 kmh SE 6.0 mph9.7 kmh 30.10 in1019.3 mb 0.00 in0.0 mm 0.00 in0.0 mm 0.00 in0.0 mm
11:30 AM 49.0°F9.4°C 44.7°F7.1°C 85% 7.0 mph SE11.3 kmh SE 9.0 mph14.5 kmh 30.09 in1019.0 mb 0.00 in0.0 mm 0.00 in0.0 mm 0.00 in0.0 mm
11:45 AM 48.9°F9.4°C 44.6°F7.0°C 85% 7.0 mph SE11.3 kmh SE 10.0 mph16.1 kmh 30.09 in1019.0 mb 0.00 in0.0 mm 0.00 in0.0 mm 0.00 in0.0 mm
12:00 PM 48.7°F9.3°C 44.1°F6.7°C 84% 9.0 mph S14.5 kmh S 12.0 mph19.3 kmh 30.08 in1018.6 mb 0.00 in0.0 mm 0.00 in0.0 mm 0.00 in0.0 mm
12:15 PM 48.8°F9.3°C 44.2°F6.8°C 84% 9.0 mph SSE14.5 kmh SSE 15.0 mph24.1 kmh 30.08 in1018.6 mb 0.00 in0.0 mm 0.00 in0.0 mm 0.00 in0.0 mm
12:30 PM 49.1°F9.5°C 43.9°F6.6°C 82% 6.0 mph S9.7 kmh S 10.0 mph16.1 kmh 30.08 in1018.6 mb 0.00 in0.0 mm 0.00 in0.0 mm 0.00 in0.0 mm
12:45 PM 49.6°F9.8°C 44.3°F6.8°C 82% 7.0 mph SSE11.3 kmh SSE 10.0 mph16.1 kmh 30.08 in1018.6 mb 0.00 in0.0 mm 0.00 in0.0 mm 0.00 in0.0 mm
01:00 PM 50.3°F10.2°C 45.7°F7.6°C 84% 1.0 mph NE1.6 kmh NE 10.0 mph16.1 kmh 30.09 in1019.0 mb 0.00 in0.0 mm 0.00 in0.0 mm 0.00 in0.0 mm
01:15 PM 57.2°F14.0°C 44.7°F7.1°C 63% 8.0 mph NNE12.9 kmh NNE 11.0 mph17.7 kmh 30.09 in1019.0 mb 0.00 in0.0 mm 0.00 in0.0 mm 0.00 in0.0 mm
01:30 PM 55.3°F12.9°C 42.9°F6.1°C 63% 6.0 mph E9.7 kmh E 16.0 mph25.7 kmh 30.09 in1019.0 mb 0.00 in0.0 mm 0.00 in0.0 mm 0.00 in0.0 mm
01:45 PM 54.1°F12.3°C 43.4°F6.3°C 67% 5.0 mph E8.0 kmh E 11.0 mph17.7 kmh 30.09 in1019.0 mb 0.00 in0.0 mm 0.00 in0.0 mm 0.00 in0.0 mm
02:00 PM 53.9°F12.2°C 44.0°F6.7°C 69% 2.0 mph NE3.2 kmh NE 10.0 mph16.1 kmh 30.09 in1019.0 mb 0.00 in0.0 mm 0.00 in0.0 mm 0.00 in0.0 mm
02:15 PM 54.5°F12.5°C 44.9°F7.2°C 70% 6.0 mph E9.7 kmh E 11.0 mph17.7 kmh 30.10 in1019.3 mb 0.00 in0.0 mm 0.00 in0.0 mm 0.00 in0.0 mm
02:30 PM 53.9°F12.2°C 43.6°F6.4°C 68% 4.0 mph NE6.4 kmh NE 13.0 mph20.9 kmh 30.09 in1019.0 mb 0.00 in0.0 mm 0.00 in0.0 mm 0.00 in0.0 mm
02:45 PM 53.9°F12.2°C 44.0°F6.7°C 69% 3.0 mph ENE4.8 kmh ENE 16.0 mph25.7 kmh 30.09 in1019.0 mb 0.00 in0.0 mm 0.00 in0.0 mm 0.00 in0.0 mm
03:00 PM 54.0°F12.2°C 42.5°F5.8°C 65% 7.0 mph NE11.3 kmh NE 11.0 mph17.7 kmh 30.09 in1019.0 mb 0.00 in0.0 mm 0.00 in0.0 mm 0.00 in0.0 mm
03:15 PM 54.5°F12.5°C 43.0°F6.1°C 65% 6.0 mph NE9.7 kmh NE 10.0 mph16.1 kmh 30.09 in1019.0 mb 0.00 in0.0 mm 0.00 in0.0 mm 0.00 in0.0 mm
03:30 PM 53.0°F11.7°C 42.4°F5.8°C 67% 10.0 mph ENE16.1 kmh ENE 15.0 mph24.1 kmh 30.09 in1019.0 mb 0.00 in0.0 mm 0.00 in0.0 mm 0.00 in0.0 mm
03:45 PM 52.9°F11.6°C 42.3°F5.7°C 67% 3.0 mph E4.8 kmh E 14.0 mph22.5 kmh 30.09 in1019.0 mb 0.00 in0.0 mm 0.00 in0.0 mm 0.00 in0.0 mm
04:00 PM 53.4°F11.9°C 42.3°F5.7°C 66% 4.0 mph NE6.4 kmh NE 10.0 mph16.1 kmh 30.09 in1019.0 mb 0.00 in0.0 mm 0.00 in0.0 mm 0.00 in0.0 mm
04:15 PM 52.9°F11.6°C 42.3°F5.7°C 67% 5.0 mph E8.0 kmh E 12.0 mph19.3 kmh 30.09 in1019.0 mb 0.00 in0.0 mm 0.00 in0.0 mm 0.00 in0.0 mm
04:30 PM 52.8°F11.6°C 42.2°F5.7°C 67% 3.0 mph NE4.8 kmh NE 16.0 mph25.7 kmh 30.08 in1018.6 mb 0.00 in0.0 mm 0.00 in0.0 mm 0.00 in0.0 mm
04:45 PM 53.6°F12.0°C 41.3°F5.2°C 63% 5.0 mph NE8.0 kmh NE 12.0 mph19.3 kmh 30.09 in1019.0 mb 0.00 in0.0 mm 0.00 in0.0 mm 0.00 in0.0 mm
05:00 PM 53.8°F12.1°C 42.3°F5.7°C 65% 2.0 mph NNE3.2 kmh NNE 8.0 mph12.9 kmh 30.09 in1019.0 mb 0.00 in0.0 mm 0.00 in0.0 mm 0.00 in0.0 mm
05:15 PM 53.0°F11.7°C 41.2°F5.1°C 64% 10.0 mph NE16.1 kmh NE 10.0 mph16.1 kmh 30.09 in1019.0 mb 0.00 in0.0 mm 0.00 in0.0 mm 0.00 in0.0 mm
05:30 PM 51.8°F11.0°C 40.0°F4.4°C 64% 2.0 mph NE3.2 kmh NE 15.0 mph24.1 kmh 30.10 in1019.3 mb 0.00 in0.0 mm 0.00 in0.0 mm 0.00 in0.0 mm
05:45 PM 51.8°F11.0°C 39.6°F4.2°C 63% 5.0 mph ENE8.0 kmh ENE 11.0 mph17.7 kmh 30.10 in1019.3 mb 0.00 in0.0 mm 0.00 in0.0 mm 0.00 in0.0 mm
06:00 PM 51.4°F10.8°C 39.2°F4.0°C 63% 3.0 mph N4.8 kmh N 8.0 mph12.9 kmh 30.10 in1019.3 mb 0.00 in0.0 mm 0.00 in0.0 mm 0.00 in0.0 mm
06:15 PM 50.7°F10.4°C 39.0°F3.9°C 64% 5.0 mph NE8.0 kmh NE 11.0 mph17.7 kmh 30.10 in1019.3 mb 0.00 in0.0 mm 0.00 in0.0 mm 0.00 in0.0 mm
06:30 PM 50.7°F10.4°C 39.4°F4.1°C 65% 7.0 mph E11.3 kmh E 9.0 mph14.5 kmh 30.11 in1019.6 mb 0.00 in0.0 mm 0.00 in0.0 mm 0.00 in0.0 mm
06:45 PM 49.3°F9.6°C 38.8°F3.8°C 67% 3.0 mph ENE4.8 kmh ENE 11.0 mph17.7 kmh 30.12 in1020.0 mb 0.00 in0.0 mm 0.00 in0.0 mm 0.00 in0.0 mm
07:00 PM 48.5°F9.2°C 39.2°F4.0°C 70% 3.0 mph E4.8 kmh E 8.0 mph12.9 kmh 30.12 in1020.0 mb 0.00 in0.0 mm 0.00 in0.0 mm 0.00 in0.0 mm
07:15 PM 48.0°F8.9°C 38.3°F3.5°C 69% 6.0 mph N9.7 kmh N 9.0 mph14.5 kmh 30.12 in1020.0 mb 0.00 in0.0 mm 0.00 in0.0 mm 0.00 in0.0 mm
07:30 PM 47.8°F8.8°C 38.1°F3.4°C 69% 5.0 mph ENE8.0 kmh ENE 10.0 mph16.1 kmh 30.13 in1020.3 mb 0.00 in0.0 mm 0.00 in0.0 mm 0.00 in0.0 mm
07:45 PM 47.1°F8.4°C 37.8°F3.2°C 70% 3.0 mph ENE4.8 kmh ENE 11.0 mph17.7 kmh 30.13 in1020.3 mb 0.00 in0.0 mm 0.00 in0.0 mm 0.00 in0.0 mm
08:00 PM 46.5°F8.1°C 38.0°F3.3°C 72% 2.0 mph NE3.2 kmh NE 8.0 mph12.9 kmh 30.13 in1020.3 mb 0.00 in0.0 mm 0.00 in0.0 mm 0.00 in0.0 mm
08:15 PM 45.5°F7.5°C 38.1°F3.4°C 75% Calm Calm 5.0 mph8.0 kmh 30.13 in1020.3 mb 0.00 in0.0 mm 0.00 in0.0 mm 0.00 in0.0 mm
08:30 PM 44.6°F7.0°C 38.2°F3.4°C 78% 1.0 mph NE1.6 kmh NE 5.0 mph8.0 kmh 30.14 in1020.7 mb 0.00 in0.0 mm 0.00 in0.0 mm 0.00 in0.0 mm
08:45 PM 44.1°F6.7°C 38.3°F3.5°C 80% 1.0 mph ENE1.6 kmh ENE 4.0 mph6.4 kmh 30.14 in1020.7 mb 0.00 in0.0 mm 0.00 in0.0 mm 0.00 in0.0 mm
09:00 PM 43.7°F6.5°C 38.3°F3.5°C 81% 2.0 mph ENE3.2 kmh ENE 4.0 mph6.4 kmh 30.14 in1020.7 mb 0.00 in0.0 mm 0.00 in0.0 mm 0.00 in0.0 mm
09:15 PM 43.4°F6.3°C 38.6°F3.7°C 83% Calm Calm 3.0 mph4.8 kmh 30.15 in1021.0 mb 0.00 in0.0 mm 0.00 in0.0 mm 0.00 in0.0 mm
09:30 PM 43.1°F6.2°C 38.3°F3.5°C 83% Calm Calm 1.0 mph1.6 kmh 30.15 in1021.0 mb 0.00 in0.0 mm 0.00 in0.0 mm 0.00 in0.0 mm
09:45 PM 42.8°F6.0°C 38.3°F3.5°C 84% Calm Calm 1.0 mph1.6 kmh 30.16 in1021.3 mb 0.00 in0.0 mm 0.00 in0.0 mm 0.00 in0.0 mm
10:00 PM 42.6°F5.9°C 38.7°F3.7°C 86% Calm Calm 1.0 mph1.6 kmh 30.16 in1021.3 mb 0.00 in0.0 mm 0.00 in0.0 mm 0.00 in0.0 mm
10:15 PM 42.3°F5.7°C 38.4°F3.6°C 86% Calm Calm 1.0 mph1.6 kmh 30.16 in1021.3 mb 0.00 in0.0 mm 0.00 in0.0 mm 0.00 in0.0 mm
10:30 PM 42.2°F5.7°C 38.6°F3.7°C 87% Calm Calm 1.0 mph1.6 kmh 30.17 in1021.7 mb 0.00 in0.0 mm 0.00 in0.0 mm 0.00 in0.0 mm
10:45 PM 42.0°F5.6°C 38.4°F3.6°C 87% Calm Calm 2.0 mph3.2 kmh 30.16 in1021.3 mb 0.00 in0.0 mm 0.00 in0.0 mm 0.00 in0.0 mm
11:00 PM 41.8°F5.4°C 38.2°F3.4°C 87% Calm Calm -- 30.16 in1021.3 mb 0.00 in0.0 mm 0.00 in0.0 mm 0.00 in0.0 mm
11:15 PM 41.6°F5.3°C 38.0°F3.3°C 87% 1.0 mph NE1.6 kmh NE 2.0 mph3.2 kmh 30.16 in1021.3 mb 0.00 in0.0 mm 0.00 in0.0 mm 0.00 in0.0 mm
11:30 PM 41.4°F5.2°C 37.8°F3.2°C 87% Calm Calm 1.0 mph1.6 kmh 30.16 in1021.3 mb 0.00 in0.0 mm 0.00 in0.0 mm 0.00 in0.0 mm
11:45 PM 41.3°F5.2°C 38.0°F3.3°C 88% Calm Calm 1.0 mph1.6 kmh 30.16 in1021.3 mb 0.00 in0.0 mm 0.00 in0.0 mm 0.00 in0.0 mm